sensor_id;sensor_type;location;lat;lon;timestamp;pressure;altitude;pressure_sealevel;temperature;humidity
25156;BME280;21913;52.456;13.634;2023-05-20T00:04:23;101063.69;;;16.02;61.70
25156;BME280;21913;52.456;13.634;2023-05-20T00:09:25;101067.19;;;16.01;61.74
25156;BME280;21913;52.456;13.634;2023-05-20T00:14:26;101074.13;;;16.00;61.56
25156;BME280;21913;52.456;13.634;2023-05-20T00:19:28;101071.53;;;16.00;61.70
25156;BME280;21913;52.456;13.634;2023-05-20T00:24:29;101063.69;;;16.00;61.81
25156;BME280;21913;52.456;13.634;2023-05-20T00:29:32;101056.75;;;15.99;61.51
25156;BME280;21913;52.456;13.634;2023-05-20T00:34:34;101062.84;;;15.98;61.48
25156;BME280;21913;52.456;13.634;2023-05-20T00:39:36;101063.72;;;15.99;61.78
25156;BME280;21913;52.456;13.634;2023-05-20T00:44:37;101051.53;;;15.98;61.51
25156;BME280;21913;52.456;13.634;2023-05-20T00:49:39;101055.00;;;15.97;61.58
25156;BME280;21913;52.456;13.634;2023-05-20T00:54:41;101056.75;;;15.98;61.65
25156;BME280;21913;52.456;13.634;2023-05-20T00:59:43;101055.88;;;15.97;61.50
25156;BME280;21913;52.456;13.634;2023-05-20T01:04:45;101051.53;;;15.96;61.58
25156;BME280;21913;52.456;13.634;2023-05-20T01:09:46;101044.56;;;15.97;61.75
25156;BME280;21913;52.456;13.634;2023-05-20T01:15:00;101048.06;;;15.96;61.83
25156;BME280;21913;52.456;13.634;2023-05-20T01:20:05;101048.06;;;15.96;61.75
25156;BME280;21913;52.456;13.634;2023-05-20T01:25:07;101045.44;;;15.96;61.73
25156;BME280;21913;52.456;13.634;2023-05-20T01:30:10;101038.50;;;15.95;61.77
25156;BME280;21913;52.456;13.634;2023-05-20T01:35:12;101041.13;;;15.95;61.58
25156;BME280;21913;52.456;13.634;2023-05-20T01:40:17;101040.25;;;15.94;61.77
25156;BME280;21913;52.456;13.634;2023-05-20T01:45:19;101052.41;;;15.95;61.84
25156;BME280;21913;52.456;13.634;2023-05-20T01:50:21;101035.91;;;15.95;61.82
25156;BME280;21913;52.456;13.634;2023-05-20T01:55:22;101040.25;;;15.94;61.97
25156;BME280;21913;52.456;13.634;2023-05-20T02:00:24;101037.63;;;15.93;61.79
25156;BME280;21913;52.456;13.634;2023-05-20T02:05:25;101035.91;;;15.92;61.79
25156;BME280;21913;52.456;13.634;2023-05-20T02:10:27;101032.41;;;15.93;61.92
25156;BME280;21913;52.456;13.634;2023-05-20T02:15:29;101031.53;;;15.92;61.85
25156;BME280;21913;52.456;13.634;2023-05-20T02:20:34;101038.53;;;15.93;61.58
25156;BME280;21913;52.456;13.634;2023-05-20T02:25:36;101036.75;;;15.92;61.89
25156;BME280;21913;52.456;13.634;2023-05-20T02:30:37;101038.50;;;15.92;61.56
25156;BME280;21913;52.456;13.634;2023-05-20T02:35:39;101028.94;;;15.92;61.86
25156;BME280;21913;52.456;13.634;2023-05-20T02:40:44;101022.84;;;15.92;61.83
25156;BME280;21913;52.456;13.634;2023-05-20T02:45:45;101023.72;;;15.91;61.70
25156;BME280;21913;52.456;13.634;2023-05-20T02:50:48;101022.00;;;15.90;61.97
25156;BME280;21913;52.456;13.634;2023-05-20T02:55:50;101027.22;;;15.90;62.06
25156;BME280;21913;52.456;13.634;2023-05-20T03:00:51;101022.88;;;15.89;61.88
25156;BME280;21913;52.456;13.634;2023-05-20T03:05:54;101018.53;;;15.89;61.71
25156;BME280;21913;52.456;13.634;2023-05-20T03:10:57;101015.91;;;15.89;62.05
25156;BME280;21913;52.456;13.634;2023-05-20T03:15:58;101022.03;;;15.88;62.16
25156;BME280;21913;52.456;13.634;2023-05-20T03:21:00;101030.72;;;15.89;61.96
25156;BME280;21913;52.456;13.634;2023-05-20T03:26:02;101018.56;;;15.88;62.08
25156;BME280;21913;52.456;13.634;2023-05-20T03:31:03;101023.78;;;15.88;61.92
25156;BME280;21913;52.456;13.634;2023-05-20T03:36:06;101032.44;;;15.87;61.99
25156;BME280;21913;52.456;13.634;2023-05-20T03:41:08;101031.59;;;15.88;61.89
25156;BME280;21913;52.456;13.634;2023-05-20T03:46:09;101024.63;;;15.87;62.22
25156;BME280;21913;52.456;13.634;2023-05-20T03:51:11;101027.22;;;15.87;61.97
25156;BME280;21913;52.456;13.634;2023-05-20T03:56:14;101011.56;;;15.87;62.24
25156;BME280;21913;52.456;13.634;2023-05-20T04:01:16;101014.19;;;15.85;61.93
25156;BME280;21913;52.456;13.634;2023-05-20T04:06:17;101008.13;;;15.85;62.06
25156;BME280;21913;52.456;13.634;2023-05-20T04:11:19;101012.47;;;15.86;61.82
25156;BME280;21913;52.456;13.634;2023-05-20T04:16:20;101016.81;;;15.85;62.19
25156;BME280;21913;52.456;13.634;2023-05-20T04:21:22;101018.56;;;15.85;62.30
25156;BME280;21913;52.456;13.634;2023-05-20T04:26:24;101015.94;;;15.85;61.96
25156;BME280;21913;52.456;13.634;2023-05-20T04:31:26;101017.69;;;15.84;62.30
25156;BME280;21913;52.456;13.634;2023-05-20T04:36:27;101011.59;;;15.84;62.09
25156;BME280;21913;52.456;13.634;2023-05-20T04:41:30;101017.69;;;15.84;62.02
25156;BME280;21913;52.456;13.634;2023-05-20T04:46:32;101009.88;;;15.83;62.12
25156;BME280;21913;52.456;13.634;2023-05-20T04:51:33;101004.66;;;15.83;62.11
25156;BME280;21913;52.456;13.634;2023-05-20T04:56:35;101008.13;;;15.82;62.06
25156;BME280;21913;52.456;13.634;2023-05-20T05:01:37;101009.03;;;15.82;62.02
25156;BME280;21913;52.456;13.634;2023-05-20T05:06:39;101009.00;;;15.81;62.10
25156;BME280;21913;52.456;13.634;2023-05-20T05:11:41;101004.66;;;15.81;62.28
25156;BME280;21913;52.456;13.634;2023-05-20T05:16:42;101013.34;;;15.82;62.32
25156;BME280;21913;52.456;13.634;2023-05-20T05:21:44;101012.47;;;15.81;62.41
25156;BME280;21913;52.456;13.634;2023-05-20T05:26:45;101008.13;;;15.80;62.15
25156;BME280;21913;52.456;13.634;2023-05-20T05:31:47;101011.63;;;15.81;62.13
25156;BME280;21913;52.456;13.634;2023-05-20T05:36:50;101006.41;;;15.81;61.98
25156;BME280;21913;52.456;13.634;2023-05-20T05:41:51;100996.84;;;15.80;62.11
25156;BME280;21913;52.456;13.634;2023-05-20T05:46:53;101004.66;;;15.80;62.08
25156;BME280;21913;52.456;13.634;2023-05-20T05:51:55;101006.44;;;15.77;62.31
25156;BME280;21913;52.456;13.634;2023-05-20T05:56:58;101010.78;;;15.78;62.14
25156;BME280;21913;52.456;13.634;2023-05-20T06:02:02;101014.25;;;15.77;62.24
25156;BME280;21913;52.456;13.634;2023-05-20T06:07:04;101011.66;;;15.77;62.55
25156;BME280;21913;52.456;13.634;2023-05-20T06:12:06;101013.41;;;15.77;62.46
25156;BME280;21913;52.456;13.634;2023-05-20T06:17:07;101009.03;;;15.77;62.10
25156;BME280;21913;52.456;13.634;2023-05-20T06:22:09;101002.06;;;15.78;62.16
25156;BME280;21913;52.456;13.634;2023-05-20T06:27:11;100998.59;;;15.77;62.08
25156;BME280;21913;52.456;13.634;2023-05-20T06:32:12;101000.34;;;15.77;62.50
25156;BME280;21913;52.456;13.634;2023-05-20T06:37:14;100995.13;;;15.77;62.15
25156;BME280;21913;52.456;13.634;2023-05-20T06:42:16;100989.91;;;15.77;62.46
25156;BME280;21913;52.456;13.634;2023-05-20T06:47:22;100989.00;;;15.76;62.21
25156;BME280;21913;52.456;13.634;2023-05-20T06:52:26;100979.47;;;15.75;62.32
25156;BME280;21913;52.456;13.634;2023-05-20T06:57:27;100978.59;;;15.76;62.33
25156;BME280;21913;52.456;13.634;2023-05-20T07:02:29;100974.25;;;15.75;62.39
25156;BME280;21913;52.456;13.634;2023-05-20T07:07:31;100982.06;;;15.75;62.20
25156;BME280;21913;52.456;13.634;2023-05-20T07:12:33;100971.63;;;15.75;62.23
25156;BME280;21913;52.456;13.634;2023-05-20T07:17:36;100969.91;;;15.74;62.25
25156;BME280;21913;52.456;13.634;2023-05-20T07:22:38;100982.94;;;15.76;62.31
25156;BME280;21913;52.456;13.634;2023-05-20T07:27:48;100969.91;;;15.74;62.41
25156;BME280;21913;52.456;13.634;2023-05-20T07:32:50;100968.19;;;15.73;62.57
25156;BME280;21913;52.456;13.634;2023-05-20T07:37:51;100957.72;;;15.75;62.38
25156;BME280;21913;52.456;13.634;2023-05-20T07:42:53;100949.03;;;15.74;62.39
25156;BME280;21913;52.456;13.634;2023-05-20T07:47:55;100941.22;;;15.73;62.50
25156;BME280;21913;52.456;13.634;2023-05-20T07:52:57;100950.81;;;15.72;62.54
25156;BME280;21913;52.456;13.634;2023-05-20T07:58:01;100942.09;;;15.73;62.29
25156;BME280;21913;52.456;13.634;2023-05-20T08:03:05;100942.09;;;15.73;62.41
25156;BME280;21913;52.456;13.634;2023-05-20T08:08:22;100946.47;;;15.71;62.69
25156;BME280;21913;52.456;13.634;2023-05-20T08:13:28;100938.63;;;15.71;62.61
25156;BME280;21913;52.456;13.634;2023-05-20T08:18:30;100950.78;;;15.71;62.08
25156;BME280;21913;52.456;13.634;2023-05-20T08:23:33;100935.13;;;15.71;62.15
25156;BME280;21913;52.456;13.634;2023-05-20T08:28:36;100934.28;;;15.72;61.93
25156;BME280;21913;52.456;13.634;2023-05-20T08:33:38;100924.72;;;15.72;61.73
25156;BME280;21913;52.456;13.634;2023-05-20T08:38:40;100930.81;;;15.71;62.02
25156;BME280;21913;52.456;13.634;2023-05-20T08:43:42;100923.84;;;15.72;62.06
25156;BME280;21913;52.456;13.634;2023-05-20T08:48:45;100923.00;;;15.71;62.23
25156;BME280;21913;52.456;13.634;2023-05-20T08:53:46;100918.63;;;15.72;62.33
25156;BME280;21913;52.456;13.634;2023-05-20T08:58:48;100920.34;;;15.73;62.39
25156;BME280;21913;52.456;13.634;2023-05-20T09:03:49;100916.88;;;15.72;62.17
25156;BME280;21913;52.456;13.634;2023-05-20T09:08:51;100913.41;;;15.72;62.05
25156;BME280;21913;52.456;13.634;2023-05-20T09:13:52;100906.44;;;15.71;62.19
25156;BME280;21913;52.456;13.634;2023-05-20T09:18:55;100898.63;;;15.72;62.42
25156;BME280;21913;52.456;13.634;2023-05-20T09:23:56;100902.09;;;15.73;62.17
25156;BME280;21913;52.456;13.634;2023-05-20T09:28:58;100892.53;;;15.73;62.50
25156;BME280;21913;52.456;13.634;2023-05-20T09:34:00;100892.53;;;15.73;62.58
25156;BME280;21913;52.456;13.634;2023-05-20T09:39:02;100900.34;;;15.73;62.41
25156;BME280;21913;52.456;13.634;2023-05-20T09:44:04;100895.13;;;15.73;62.60
25156;BME280;21913;52.456;13.634;2023-05-20T09:49:06;100889.91;;;15.73;62.95
25156;BME280;21913;52.456;13.634;2023-05-20T09:54:10;100894.25;;;15.74;63.00
25156;BME280;21913;52.456;13.634;2023-05-20T09:59:14;100896.00;;;15.74;62.83
25156;BME280;21913;52.456;13.634;2023-05-20T10:04:16;100894.25;;;15.74;62.84
25156;BME280;21913;52.456;13.634;2023-05-20T10:19:37;100887.31;;;15.73;62.95
25156;BME280;21913;52.456;13.634;2023-05-20T10:24:42;100885.56;;;15.74;63.02
25156;BME280;21913;52.456;13.634;2023-05-20T10:29:51;100878.59;;;15.74;62.73
25156;BME280;21913;52.456;13.634;2023-05-20T10:35:01;100876.84;;;15.75;62.82
25156;BME280;21913;52.456;13.634;2023-05-20T10:40:11;100868.19;;;15.73;63.12
25156;BME280;21913;52.456;13.634;2023-05-20T10:45:27;100870.75;;;15.74;63.17
25156;BME280;21913;52.456;13.634;2023-05-20T10:50:36;100869.03;;;15.73;63.30
25156;BME280;21913;52.456;13.634;2023-05-20T10:55:39;100861.22;;;15.73;62.97
25156;BME280;21913;52.456;13.634;2023-05-20T11:00:41;100861.22;;;15.73;62.96
25156;BME280;21913;52.456;13.634;2023-05-20T11:05:44;100849.03;;;15.74;62.96
25156;BME280;21913;52.456;13.634;2023-05-20T11:10:46;100844.69;;;15.74;63.02
25156;BME280;21913;52.456;13.634;2023-05-20T11:15:48;100845.56;;;15.73;62.92
25156;BME280;21913;52.456;13.634;2023-05-20T11:20:49;100842.09;;;15.73;63.21
25156;BME280;21913;52.456;13.634;2023-05-20T11:25:52;100845.56;;;15.73;63.23
25156;BME280;21913;52.456;13.634;2023-05-20T11:30:54;100830.78;;;15.72;63.62
25156;BME280;21913;52.456;13.634;2023-05-20T11:35:56;100836.91;;;15.71;63.25
25156;BME280;21913;52.456;13.634;2023-05-20T11:40:57;100836.88;;;15.73;63.13
25156;BME280;21913;52.456;13.634;2023-05-20T11:45:59;100836.00;;;15.72;63.45
25156;BME280;21913;52.456;13.634;2023-05-20T11:51:01;100816.88;;;15.72;63.13
25156;BME280;21913;52.456;13.634;2023-05-20T11:56:03;100815.13;;;15.72;63.16
25156;BME280;21913;52.456;13.634;2023-05-20T12:01:04;100810.81;;;15.71;63.52
25156;BME280;21913;52.456;13.634;2023-05-20T12:06:15;100803.84;;;15.72;63.41
25156;BME280;21913;52.456;13.634;2023-05-20T12:11:17;100798.63;;;15.70;63.31
25156;BME280;21913;52.456;13.634;2023-05-20T12:16:18;100800.38;;;15.71;63.46
25156;BME280;21913;52.456;13.634;2023-05-20T12:21:20;100791.66;;;15.71;63.55
25156;BME280;21913;52.456;13.634;2023-05-20T12:26:26;100794.25;;;15.72;63.35
25156;BME280;21913;52.456;13.634;2023-05-20T12:31:27;100787.31;;;15.71;63.36
25156;BME280;21913;52.456;13.634;2023-05-20T12:36:29;100787.31;;;15.71;63.36
25156;BME280;21913;52.456;13.634;2023-05-20T12:41:31;100782.09;;;15.71;63.43
25156;BME280;21913;52.456;13.634;2023-05-20T12:46:34;100785.56;;;15.72;63.44
25156;BME280;21913;52.456;13.634;2023-05-20T12:51:36;100774.25;;;15.73;63.28
25156;BME280;21913;52.456;13.634;2023-05-20T12:56:37;100779.47;;;15.73;63.12
25156;BME280;21913;52.456;13.634;2023-05-20T13:01:39;100769.91;;;15.73;62.99
25156;BME280;21913;52.456;13.634;2023-05-20T13:06:41;100777.72;;;15.73;63.27
25156;BME280;21913;52.456;13.634;2023-05-20T13:11:43;100770.78;;;15.72;63.16
25156;BME280;21913;52.456;13.634;2023-05-20T13:16:44;100769.06;;;15.71;63.51
25156;BME280;21913;52.456;13.634;2023-05-20T13:21:47;100760.34;;;15.71;63.36
25156;BME280;21913;52.456;13.634;2023-05-20T13:26:49;100756.88;;;15.70;63.49
25156;BME280;21913;52.456;13.634;2023-05-20T13:31:50;100749.03;;;15.70;63.31
25156;BME280;21913;52.456;13.634;2023-05-20T13:36:52;100748.19;;;15.70;63.33
25156;BME280;21913;52.456;13.634;2023-05-20T13:41:53;100740.34;;;15.70;63.66
25156;BME280;21913;52.456;13.634;2023-05-20T13:46:55;100749.03;;;15.70;63.42
25156;BME280;21913;52.456;13.634;2023-05-20T13:51:56;100745.56;;;15.70;63.39
25156;BME280;21913;52.456;13.634;2023-05-20T13:56:58;100725.59;;;15.69;63.70
25156;BME280;21913;52.456;13.634;2023-05-20T14:01:59;100722.13;;;15.68;63.70
25156;BME280;21913;52.456;13.634;2023-05-20T14:07:01;100720.38;;;15.69;63.44
25156;BME280;21913;52.456;13.634;2023-05-20T14:12:03;100719.50;;;15.68;63.50
25156;BME280;21913;52.456;13.634;2023-05-20T14:17:08;100712.56;;;15.69;63.89
25156;BME280;21913;52.456;13.634;2023-05-20T14:22:09;100704.72;;;15.69;63.54
25156;BME280;21913;52.456;13.634;2023-05-20T14:27:11;100707.34;;;15.69;63.74
25156;BME280;21913;52.456;13.634;2023-05-20T14:32:13;100704.75;;;15.67;63.84
25156;BME280;21913;52.456;13.634;2023-05-20T14:37:14;100713.41;;;15.69;63.82
25156;BME280;21913;52.456;13.634;2023-05-20T14:42:16;100703.00;;;15.68;63.57
25156;BME280;21913;52.456;13.634;2023-05-20T14:47:17;100710.81;;;15.69;63.67
25156;BME280;21913;52.456;13.634;2023-05-20T14:52:19;100707.34;;;15.67;63.71
25156;BME280;21913;52.456;13.634;2023-05-20T14:57:21;100702.13;;;15.67;63.50
25156;BME280;21913;52.456;13.634;2023-05-20T15:02:22;100697.78;;;15.68;63.87
25156;BME280;21913;52.456;13.634;2023-05-20T15:07:24;100696.06;;;15.67;63.85
25156;BME280;21913;52.456;13.634;2023-05-20T15:12:25;100690.84;;;15.67;63.69
25156;BME280;21913;52.456;13.634;2023-05-20T15:17:27;100692.59;;;15.66;63.95
25156;BME280;21913;52.456;13.634;2023-05-20T15:22:28;100691.72;;;15.66;63.67
25156;BME280;21913;52.456;13.634;2023-05-20T15:27:30;100689.97;;;15.66;64.12
25156;BME280;21913;52.456;13.634;2023-05-20T15:32:31;100689.13;;;15.66;63.83
25156;BME280;21913;52.456;13.634;2023-05-20T15:37:33;100694.34;;;15.66;63.99
25156;BME280;21913;52.456;13.634;2023-05-20T15:42:35;100692.59;;;15.66;64.13
25156;BME280;21913;52.456;13.634;2023-05-20T15:47:36;100692.59;;;15.65;63.82
25156;BME280;21913;52.456;13.634;2023-05-20T15:52:38;100687.38;;;15.66;64.09
25156;BME280;21913;52.456;13.634;2023-05-20T15:57:40;100686.50;;;15.66;64.18
25156;BME280;21913;52.456;13.634;2023-05-20T16:02:42;100687.38;;;15.66;64.06
25156;BME280;21913;52.456;13.634;2023-05-20T16:07:45;100686.50;;;15.66;64.15
25156;BME280;21913;52.456;13.634;2023-05-20T16:12:46;100679.53;;;15.65;64.29
25156;BME280;21913;52.456;13.634;2023-05-20T16:17:48;100676.06;;;15.64;64.31
25156;BME280;21913;52.456;13.634;2023-05-20T16:22:49;100681.28;;;15.64;64.32
25156;BME280;21913;52.456;13.634;2023-05-20T16:27:51;100670.84;;;15.64;64.25
25156;BME280;21913;52.456;13.634;2023-05-20T16:32:52;100665.63;;;15.64;63.97
25156;BME280;21913;52.456;13.634;2023-05-20T16:37:54;100650.88;;;15.63;64.39
25156;BME280;21913;52.456;13.634;2023-05-20T16:42:55;100655.22;;;15.63;64.11
25156;BME280;21913;52.456;13.634;2023-05-20T16:47:57;100654.34;;;15.64;64.04
25156;BME280;21913;52.456;13.634;2023-05-20T16:52:58;100666.53;;;15.63;64.47
25156;BME280;21913;52.456;13.634;2023-05-20T16:58:00;100665.63;;;15.64;64.06
25156;BME280;21913;52.456;13.634;2023-05-20T17:03:02;100663.91;;;15.63;64.21
25156;BME280;21913;52.456;13.634;2023-05-20T17:08:04;100663.94;;;15.57;63.94
25156;BME280;21913;52.456;13.634;2023-05-20T17:13:05;100673.50;;;15.58;63.59
25156;BME280;21913;52.456;13.634;2023-05-20T17:18:07;100667.41;;;15.59;63.38
25156;BME280;21913;52.456;13.634;2023-05-20T17:23:09;100658.69;;;15.62;63.34
25156;BME280;21913;52.456;13.634;2023-05-20T17:28:10;100676.94;;;15.62;63.42
25156;BME280;21913;52.456;13.634;2023-05-20T17:33:12;100678.69;;;15.61;63.44
25156;BME280;21913;52.456;13.634;2023-05-20T17:38:13;100677.81;;;15.64;63.71
25156;BME280;21913;52.456;13.634;2023-05-20T17:43:15;100677.81;;;15.62;63.50
25156;BME280;21913;52.456;13.634;2023-05-20T17:48:16;100688.25;;;15.62;63.92
25156;BME280;21913;52.456;13.634;2023-05-20T17:53:18;100688.25;;;15.62;63.77
25156;BME280;21913;52.456;13.634;2023-05-20T17:58:20;100686.53;;;15.63;63.80
25156;BME280;21913;52.456;13.634;2023-05-20T18:03:22;100688.25;;;15.62;63.75
25156;BME280;21913;52.456;13.634;2023-05-20T18:08:23;100683.91;;;15.63;63.83
25156;BME280;21913;52.456;13.634;2023-05-20T18:13:25;100690.88;;;15.61;64.04
25156;BME280;21913;52.456;13.634;2023-05-20T18:18:26;100690.84;;;15.62;64.06
25156;BME280;21913;52.456;13.634;2023-05-20T18:23:28;100681.31;;;15.61;64.01
25156;BME280;21913;52.456;13.634;2023-05-20T18:28:29;100685.63;;;15.62;64.19
25156;BME280;21913;52.456;13.634;2023-05-20T18:33:31;100683.06;;;15.61;64.15
25156;BME280;21913;52.456;13.634;2023-05-20T18:38:32;100685.66;;;15.61;64.11
25156;BME280;21913;52.456;13.634;2023-05-20T18:43:34;100694.34;;;15.61;64.28
25156;BME280;21913;52.456;13.634;2023-05-20T18:48:35;100689.13;;;15.61;64.44
25156;BME280;21913;52.456;13.634;2023-05-20T18:53:37;100703.03;;;15.60;64.14
25156;BME280;21913;52.456;13.634;2023-05-20T18:58:39;100701.31;;;15.61;64.60
25156;BME280;21913;52.456;13.634;2023-05-20T19:03:40;100706.53;;;15.61;64.20
25156;BME280;21913;52.456;13.634;2023-05-20T19:08:42;100696.97;;;15.61;64.02
25156;BME280;21913;52.456;13.634;2023-05-20T19:13:44;100691.75;;;15.61;64.33
25156;BME280;21913;52.456;13.634;2023-05-20T19:18:46;100683.91;;;15.61;64.51
25156;BME280;21913;52.456;13.634;2023-05-20T19:23:47;100700.41;;;15.60;64.54
25156;BME280;21913;52.456;13.634;2023-05-20T19:28:49;100700.41;;;15.60;64.21
25156;BME280;21913;52.456;13.634;2023-05-20T19:33:50;100699.56;;;15.60;64.42
25156;BME280;21913;52.456;13.634;2023-05-20T19:38:52;100693.47;;;15.59;64.46
25156;BME280;21913;52.456;13.634;2023-05-20T19:43:53;100707.38;;;15.60;64.52
25156;BME280;21913;52.456;13.634;2023-05-20T19:48:56;100703.91;;;15.59;64.52
25156;BME280;21913;52.456;13.634;2023-05-20T19:53:58;100703.06;;;15.59;64.39
25156;BME280;21913;52.456;13.634;2023-05-20T19:58:59;100700.41;;;15.60;64.66
25156;BME280;21913;52.456;13.634;2023-05-20T20:04:01;100686.53;;;15.58;64.42
25156;BME280;21913;52.456;13.634;2023-05-20T20:09:02;100686.53;;;15.58;64.38
25156;BME280;21913;52.456;13.634;2023-05-20T20:14:04;100688.25;;;15.59;64.63
25156;BME280;21913;52.456;13.634;2023-05-20T20:19:05;100690.88;;;15.59;64.74
25156;BME280;21913;52.456;13.634;2023-05-20T20:24:07;100694.38;;;15.58;64.56
25156;BME280;21913;52.456;13.634;2023-05-20T20:29:08;100690.88;;;15.59;64.70
25156;BME280;21913;52.456;13.634;2023-05-20T20:34:10;100688.25;;;15.59;64.54
25156;BME280;21913;52.456;13.634;2023-05-20T20:39:11;100681.31;;;15.58;64.66
25156;BME280;21913;52.456;13.634;2023-05-20T20:44:14;100683.94;;;15.58;64.76
25156;BME280;21913;52.456;13.634;2023-05-20T20:49:17;100686.53;;;15.58;64.64
25156;BME280;21913;52.456;13.634;2023-05-20T20:54:19;100676.09;;;15.58;64.86
25156;BME280;21913;52.456;13.634;2023-05-20T20:59:21;100676.09;;;15.58;64.62
25156;BME280;21913;52.456;13.634;2023-05-20T21:04:23;100670.88;;;15.58;64.60
25156;BME280;21913;52.456;13.634;2023-05-20T21:09:25;100672.63;;;15.59;64.77
25156;BME280;21913;52.456;13.634;2023-05-20T21:14:26;100673.50;;;15.58;64.61
25156;BME280;21913;52.456;13.634;2023-05-20T21:19:28;100659.59;;;15.58;64.80
25156;BME280;21913;52.456;13.634;2023-05-20T21:24:29;100670.03;;;15.58;64.85
25156;BME280;21913;52.456;13.634;2023-05-20T21:29:31;100659.59;;;15.58;64.91
25156;BME280;21913;52.456;13.634;2023-05-20T21:34:33;100657.88;;;15.57;64.79
25156;BME280;21913;52.456;13.634;2023-05-20T21:39:34;100654.41;;;15.56;64.84
25156;BME280;21913;52.456;13.634;2023-05-20T21:44:36;100649.19;;;15.56;64.89
25156;BME280;21913;52.456;13.634;2023-05-20T21:49:37;100641.38;;;15.56;64.87
25156;BME280;21913;52.456;13.634;2023-05-20T21:54:39;100633.53;;;15.56;65.13
25156;BME280;21913;52.456;13.634;2023-05-20T21:59:40;100630.03;;;15.57;64.85
25156;BME280;21913;52.456;13.634;2023-05-20T22:04:42;100627.44;;;15.57;64.93
25156;BME280;21913;52.456;13.634;2023-05-20T22:09:43;100626.56;;;15.57;64.82
25156;BME280;21913;52.456;13.634;2023-05-20T22:14:45;100615.25;;;15.58;65.11
25156;BME280;21913;52.456;13.634;2023-05-20T22:19:47;100611.78;;;15.57;64.74
25156;BME280;21913;52.456;13.634;2023-05-20T22:24:48;100590.91;;;15.57;64.86
25156;BME280;21913;52.456;13.634;2023-05-20T22:29:50;100589.19;;;15.58;65.03
25156;BME280;21913;52.456;13.634;2023-05-20T22:34:51;100581.38;;;15.56;64.87
25156;BME280;21913;52.456;13.634;2023-05-20T22:39:53;100571.81;;;15.57;65.05
25156;BME280;21913;52.456;13.634;2023-05-20T22:44:55;100568.34;;;15.56;64.71
25156;BME280;21913;52.456;13.634;2023-05-20T22:49:56;100555.31;;;15.56;65.13
25156;BME280;21913;52.456;13.634;2023-05-20T22:54:58;100547.47;;;15.56;65.13
25156;BME280;21913;52.456;13.634;2023-05-20T22:59:59;100544.88;;;15.56;64.84
25156;BME280;21913;52.456;13.634;2023-05-20T23:05:01;100540.50;;;15.57;64.77
25156;BME280;21913;52.456;13.634;2023-05-20T23:10:03;100535.31;;;15.55;64.72
25156;BME280;21913;52.456;13.634;2023-05-20T23:15:05;100537.03;;;15.56;65.06
25156;BME280;21913;52.456;13.634;2023-05-20T23:20:07;100532.72;;;15.55;65.00
25156;BME280;21913;52.456;13.634;2023-05-20T23:25:09;100525.75;;;15.56;65.01
25156;BME280;21913;52.456;13.634;2023-05-20T23:30:10;100520.53;;;15.56;64.93
25156;BME280;21913;52.456;13.634;2023-05-20T23:35:12;100517.94;;;15.56;64.97
25156;BME280;21913;52.456;13.634;2023-05-20T23:40:13;100504.88;;;15.54;65.00
25156;BME280;21913;52.456;13.634;2023-05-20T23:45:15;100503.13;;;15.55;64.87
25156;BME280;21913;52.456;13.634;2023-05-20T23:50:17;100504.88;;;15.56;64.96
25156;BME280;21913;52.456;13.634;2023-05-20T23:55:18;100499.66;;;15.54;64.99
